createdAt,value
2018-02-15T00:02:26.049Z,3.27
2018-02-15T00:04:56.099Z,3.20
2018-02-15T00:07:25.234Z,4.23
2018-02-15T00:09:53.721Z,3.93
2018-02-15T00:12:21.592Z,4.23
2018-02-15T00:14:49.510Z,4.30
2018-02-15T00:17:24.171Z,4.30
2018-02-15T00:19:52.010Z,5.27
2018-02-15T00:22:19.865Z,5.60
2018-02-15T00:24:48.810Z,4.03
2018-02-15T00:27:17.393Z,4.80
2018-02-15T00:29:46.097Z,4.10
2018-02-15T00:32:14.882Z,3.80
2018-02-15T00:34:44.465Z,3.60
2018-02-15T00:37:12.292Z,4.10
2018-02-15T00:39:40.850Z,5.00
2018-02-15T00:42:09.264Z,5.00
2018-02-15T00:44:39.126Z,4.50
2018-02-15T00:47:10.097Z,4.07
2018-02-15T00:49:38.963Z,5.33
2018-02-15T00:52:07.548Z,4.63
2018-02-15T00:54:36.802Z,5.60
2018-02-15T00:57:04.664Z,5.23
2018-02-15T00:59:33.919Z,4.77
2018-02-15T01:02:02.518Z,3.90
2018-02-15T01:04:30.415Z,3.50
2018-02-15T01:06:58.387Z,3.53
2018-02-15T01:09:26.354Z,3.90
2018-02-15T01:11:54.181Z,4.83
2018-02-15T01:14:22.004Z,4.80
2018-02-15T01:16:49.806Z,4.33
2018-02-15T01:19:17.634Z,4.30
2018-02-15T01:21:45.535Z,4.33
2018-02-15T01:24:14.574Z,4.20
2018-02-15T01:26:44.634Z,4.20
2018-02-15T01:29:13.303Z,3.50
2018-02-15T01:31:41.318Z,4.17
2018-02-15T01:34:10.969Z,3.23
2018-02-15T01:36:39.422Z,3.40
2018-02-15T01:39:08.100Z,3.57
2018-02-15T01:41:36.031Z,3.97
2018-02-15T01:44:03.827Z,4.17
2018-02-15T01:46:31.671Z,3.75
2018-02-15T01:49:03.015Z,4.47
2018-02-15T01:51:32.126Z,4.60
2018-02-15T01:54:00.593Z,3.83
2018-02-15T01:56:28.394Z,3.20
2018-02-15T04:47:17.177Z,5.50
2018-02-15T04:49:46.495Z,5.47
2018-02-15T04:52:15.036Z,5.93
2018-02-15T04:54:45.516Z,5.60
2018-02-15T04:57:15.810Z,9.40
2018-02-15T04:59:46.131Z,8.53
2018-02-15T05:02:15.638Z,8.70
2018-02-15T05:04:43.735Z,5.13
2018-02-15T05:07:12.394Z,4.20
2018-02-15T05:09:41.886Z,4.40
2018-02-15T05:12:13.239Z,4.30
2018-02-15T05:14:41.089Z,4.47
2018-02-15T05:17:10.414Z,5.63
2018-02-15T05:19:39.237Z,6.20
2018-02-15T05:22:08.480Z,5.67
2018-02-15T05:24:37.012Z,22.73
2018-02-15T05:27:07.090Z,18.03
2018-02-15T05:29:36.226Z,19.50
2018-02-15T05:32:06.315Z,14.70
2018-02-15T05:34:35.439Z,7.33
2018-02-15T05:37:04.957Z,6.60
2018-02-15T05:39:34.712Z,6.00
2018-02-15T05:42:03.547Z,8.37
2018-02-15T05:44:35.512Z,8.63
2018-02-15T05:47:03.426Z,11.87
2018-02-15T05:49:31.888Z,7.73
2018-02-15T05:52:00.084Z,6.73
2018-02-15T05:54:29.726Z,7.57
2018-02-15T05:56:58.499Z,11.70
2018-02-15T05:59:26.299Z,9.77
2018-02-15T06:01:54.093Z,9.30
2018-02-15T06:04:25.096Z,9.13
2018-02-15T06:06:53.238Z,7.73
2018-02-15T06:09:21.947Z,9.60
2018-02-15T06:11:52.422Z,9.83
2018-02-15T06:14:22.037Z,7.57
2018-02-15T06:16:50.776Z,7.07
2018-02-15T06:19:19.036Z,5.87
2018-02-15T06:21:48.422Z,4.70
2018-02-15T06:24:18.059Z,5.90
2018-02-15T06:26:45.980Z,4.87
2018-02-15T06:29:14.702Z,3.60
2018-02-15T06:31:45.435Z,4.70
2018-02-15T06:34:14.957Z,3.87
2018-02-15T06:36:43.685Z,3.70
2018-02-15T06:39:12.373Z,4.07
2018-02-15T06:41:41.158Z,3.70
2018-02-15T06:44:10.358Z,3.60
2018-02-15T06:46:39.409Z,2.90
2018-02-15T06:49:07.610Z,3.73
2018-02-15T06:51:35.580Z,3.70
2018-02-15T06:54:03.418Z,3.50
2018-02-15T07:56:10.379Z,3.80
2018-02-15T07:58:39.849Z,3.10
2018-02-15T08:01:07.645Z,3.63
2018-02-15T08:03:37.149Z,3.50
2018-02-15T08:06:06.677Z,2.77
2018-02-15T08:08:36.591Z,2.50
2018-02-15T08:11:05.369Z,2.70
2018-02-15T08:13:33.183Z,3.60
2018-02-15T08:16:00.991Z,3.50
2018-02-15T08:18:31.221Z,3.70
2018-02-15T08:20:59.627Z,3.62
2018-02-15T08:23:28.557Z,3.90
2018-02-15T08:25:56.410Z,4.87
2018-02-15T08:28:24.206Z,5.07
2018-02-15T08:30:52.759Z,5.57
2018-02-15T08:33:20.635Z,4.17
2018-02-15T08:35:48.581Z,4.93
2018-02-15T08:38:16.606Z,5.13
2018-02-15T08:40:44.415Z,4.50
2018-02-15T08:43:13.222Z,4.37
2018-02-15T08:45:41.045Z,4.80
2018-02-15T08:48:08.825Z,4.20
2018-02-15T08:50:36.602Z,7.03
2018-02-15T08:53:05.088Z,4.70
2018-02-15T08:55:33.747Z,5.50
2018-02-15T08:58:01.568Z,4.50
2018-02-15T09:00:30.129Z,4.20
2018-02-15T09:02:57.930Z,5.03
2018-02-15T09:05:25.797Z,5.83
2018-02-15T09:07:53.589Z,4.67
2018-02-15T09:10:21.386Z,4.37
2018-02-15T09:12:49.176Z,4.87
2018-02-15T09:15:17.339Z,4.53
2018-02-15T09:17:47.801Z,4.83
2018-02-15T09:20:15.801Z,6.50
2018-02-15T09:22:43.592Z,6.43
2018-02-15T09:25:12.388Z,6.37
2018-02-15T09:27:40.942Z,6.17
2018-02-15T09:30:08.754Z,5.80
2018-02-15T09:32:36.566Z,7.60
2018-02-15T09:35:04.368Z,5.93
2018-02-15T09:37:32.481Z,5.80
2018-02-15T09:40:00.279Z,6.20
2018-02-15T09:42:28.959Z,4.70
2018-02-15T09:44:56.737Z,4.37
2018-02-15T09:47:24.555Z,4.60
2018-02-15T09:49:52.357Z,4.63
2018-02-15T09:52:20.173Z,5.00
2018-02-15T09:54:48.035Z,3.77
2018-02-15T09:57:15.862Z,3.07
2018-02-15T09:59:43.651Z,3.90
2018-02-15T10:02:12.295Z,3.43
2018-02-15T10:04:40.132Z,3.93
2018-02-15T10:07:07.963Z,4.77
2018-02-15T10:09:36.517Z,3.83
2018-02-15T10:12:04.405Z,3.70
2018-02-15T10:14:32.949Z,3.73
2018-02-15T10:17:00.734Z,5.00
2018-02-15T10:19:28.524Z,4.50
2018-02-15T10:21:57.069Z,4.13
2018-02-15T10:24:24.866Z,3.83
2018-02-15T10:26:53.411Z,4.20
2018-02-15T10:29:21.210Z,4.40
2018-02-15T10:31:49.808Z,4.30
2018-02-15T10:34:18.342Z,4.10
2018-02-15T10:36:46.158Z,4.43
2018-02-15T10:39:13.953Z,5.20
2018-02-15T10:41:41.736Z,4.03
2018-02-15T10:44:09.531Z,5.80
2018-02-15T10:46:38.082Z,5.90
2018-02-15T10:49:05.860Z,7.57
2018-02-15T10:51:33.662Z,5.77
2018-02-15T10:54:01.476Z,6.27
2018-02-15T10:56:29.305Z,7.40
2018-02-15T10:58:57.161Z,7.10
2018-02-15T11:01:30.548Z,5.47
2018-02-15T11:04:04.049Z,5.30
2018-02-15T11:06:32.622Z,6.30
2018-02-15T11:09:01.162Z,6.43
2018-02-15T11:11:28.937Z,6.93
2018-02-15T11:13:56.728Z,5.70
2018-02-15T11:16:25.325Z,5.80
2018-02-15T11:18:53.867Z,7.20
2018-02-15T11:21:21.638Z,6.40
2018-02-15T11:23:49.435Z,5.10
2018-02-15T11:26:17.250Z,6.70
2018-02-15T11:28:45.054Z,5.37
2018-02-15T11:31:13.598Z,6.13
2018-02-15T11:33:41.369Z,5.20
2018-02-15T11:36:09.161Z,5.73
2018-02-15T11:38:37.753Z,6.63
2018-02-15T11:41:06.393Z,5.70
2018-02-15T11:43:34.213Z,5.80
2018-02-15T11:46:02.786Z,6.77
2018-02-15T11:48:31.319Z,6.83
2018-02-15T11:50:59.127Z,6.97
2018-02-15T11:53:26.951Z,10.70
2018-02-15T11:55:54.758Z,7.53
2018-02-15T11:58:23.345Z,6.47
2018-02-15T12:00:51.905Z,5.73
2018-02-15T12:03:19.681Z,6.13
2018-02-15T12:05:48.232Z,5.23
2018-02-15T12:08:16.029Z,5.63
2018-02-15T12:10:44.590Z,6.57
2018-02-15T12:13:12.373Z,8.23
2018-02-15T12:15:40.919Z,6.73
2018-02-15T12:18:08.722Z,7.30
2018-02-15T12:20:37.289Z,6.63
2018-02-15T12:23:05.852Z,6.13
2018-02-15T12:25:33.641Z,6.17
2018-02-15T12:28:01.426Z,6.43
2018-02-15T12:30:29.967Z,7.80
2018-02-15T12:32:57.773Z,6.00
2018-02-15T12:35:26.331Z,6.30
2018-02-15T12:37:54.139Z,6.93
2018-02-15T12:40:21.917Z,7.00
2018-02-15T12:42:49.704Z,6.23
2018-02-15T12:45:17.525Z,6.37
2018-02-15T12:47:45.321Z,6.03
2018-02-15T12:50:13.123Z,6.60
2018-02-15T12:52:40.923Z,6.43
2018-02-15T12:55:08.729Z,5.97
2018-02-15T12:57:36.533Z,6.30
2018-02-15T13:00:05.171Z,6.73
2018-02-15T13:02:32.981Z,5.00
2018-02-15T13:05:01.532Z,5.77
2018-02-15T13:07:29.345Z,6.00
2018-02-15T13:09:57.916Z,6.50
2018-02-15T13:12:38.150Z,6.77
2018-02-15T13:15:17.788Z,5.37
2018-02-15T13:17:45.629Z,6.00
2018-02-15T13:20:20.218Z,13.00
2018-02-15T13:22:48.165Z,5.60
2018-02-15T13:25:18.402Z,6.83
2018-02-15T13:27:58.951Z,6.20
2018-02-15T13:30:27.507Z,7.27
2018-02-15T13:32:55.378Z,6.20
2018-02-15T13:35:23.954Z,6.70
2018-02-15T13:37:51.776Z,6.97
2018-02-15T13:40:19.645Z,5.70
2018-02-15T13:42:48.230Z,7.00
2018-02-15T13:45:16.859Z,6.65
2018-02-15T13:47:44.657Z,6.90
2018-02-15T13:50:13.227Z,6.33
2018-02-15T13:52:42.838Z,7.30
2018-02-15T13:55:12.297Z,6.37
2018-02-15T13:57:40.341Z,5.63
2018-02-15T14:00:08.136Z,6.77
2018-02-15T14:02:36.877Z,5.13
2018-02-15T14:05:06.181Z,6.47
2018-02-15T14:07:34.773Z,4.90
2018-02-15T14:10:03.083Z,4.87
2018-02-15T14:12:33.098Z,5.23
2018-02-15T14:15:01.765Z,5.00
2018-02-15T14:17:30.409Z,5.20
2018-02-15T14:20:00.081Z,5.50
2018-02-15T14:22:29.885Z,6.53
2018-02-15T14:24:57.650Z,6.47
2018-02-15T14:27:26.482Z,7.30
2018-02-15T14:29:54.614Z,5.63
2018-02-15T14:32:22.845Z,6.27
2018-02-15T14:34:52.257Z,6.23
2018-02-15T14:37:20.129Z,5.97
2018-02-15T14:39:48.890Z,5.63
2018-02-15T14:42:17.153Z,5.47
2018-02-15T14:44:46.526Z,4.73
2018-02-15T14:47:14.332Z,6.97
2018-02-15T14:49:42.926Z,6.00
2018-02-15T14:52:11.496Z,4.37
2018-02-15T14:55:20.822Z,4.70
2018-02-15T15:01:10.629Z,4.33
2018-02-15T15:09:54.674Z,4.90
2018-02-15T15:32:01.814Z,4.00
2018-02-15T15:34:29.652Z,3.90
2018-02-15T15:36:57.434Z,4.20
2018-02-15T15:39:25.227Z,4.33
2018-02-15T15:41:53.761Z,4.47
2018-02-15T15:44:21.593Z,4.07
2018-02-15T15:46:49.383Z,5.23
2018-02-15T15:49:17.148Z,3.57
2018-02-15T15:51:44.926Z,4.50
2018-02-15T15:54:12.715Z,4.13
2018-02-15T15:56:40.496Z,3.93
2018-02-15T15:59:09.065Z,3.90
2018-02-15T16:01:37.685Z,5.10
2018-02-15T16:04:05.475Z,5.43
2018-02-15T16:06:33.271Z,5.13
2018-02-15T16:09:01.819Z,5.93
2018-02-15T16:11:29.629Z,4.90
2018-02-15T16:13:58.229Z,5.37
2018-02-15T16:16:25.997Z,5.13
2018-02-15T16:18:53.781Z,4.53
2018-02-15T16:21:21.568Z,5.90
2018-02-15T16:23:49.334Z,5.00
2018-02-15T16:26:17.133Z,5.33
2018-02-15T16:28:45.681Z,6.07
2018-02-15T16:31:13.488Z,4.50
2018-02-15T16:33:42.025Z,5.03
2018-02-15T16:36:09.823Z,5.23
2018-02-15T16:38:38.364Z,5.80
2018-02-15T16:41:06.157Z,5.90
2018-02-15T16:43:34.716Z,5.30
2018-02-15T16:46:02.524Z,6.17
2018-02-15T16:48:31.055Z,7.50
2018-02-15T16:50:58.828Z,5.63
2018-02-15T16:53:26.594Z,5.43
2018-02-15T16:55:54.362Z,4.67
2018-02-15T16:58:22.126Z,5.10
2018-02-15T17:00:49.901Z,5.23
2018-02-15T17:03:17.687Z,5.23
2018-02-15T17:05:46.249Z,4.30
2018-02-15T17:08:14.029Z,4.27
2018-02-15T17:10:41.832Z,5.53
2018-02-15T17:13:09.708Z,4.50
2018-02-15T17:15:37.491Z,4.77
2018-02-15T17:18:05.260Z,4.73
2018-02-15T17:20:33.043Z,6.57
2018-02-15T17:23:01.602Z,5.30
2018-02-15T17:25:29.410Z,5.87
2018-02-15T17:27:57.957Z,5.50
2018-02-15T17:30:25.749Z,5.97
2018-02-15T17:32:54.297Z,4.93
2018-02-15T17:35:22.135Z,5.43
2018-02-15T17:37:49.937Z,4.27
2018-02-15T17:40:17.724Z,5.57
2018-02-15T17:42:48.008Z,5.95
2018-02-15T17:45:15.813Z,7.00
2018-02-15T17:47:44.418Z,6.93
2018-02-15T17:50:12.193Z,7.83
2018-02-15T17:52:39.984Z,5.57
2018-02-15T17:55:07.799Z,6.40
2018-02-15T17:57:36.386Z,5.70
2018-02-15T18:00:05.006Z,6.60
2018-02-15T18:02:33.615Z,7.17
2018-02-15T18:05:01.406Z,6.07
2018-02-15T18:07:29.950Z,6.60
2018-02-15T18:09:57.814Z,7.07
2018-02-15T18:12:25.615Z,6.17
2018-02-15T18:14:53.455Z,6.23
2018-02-15T18:17:21.258Z,7.67
2018-02-15T18:19:49.841Z,6.57
2018-02-15T18:22:18.420Z,7.70
2018-02-15T18:24:46.970Z,6.37
2018-02-15T18:27:14.886Z,9.50
2018-02-15T18:29:43.281Z,7.63
2018-02-15T18:32:11.581Z,7.07
2018-02-15T18:34:39.402Z,7.13
2018-02-15T18:37:07.266Z,7.17
2018-02-15T18:39:35.062Z,7.53
2018-02-15T18:42:02.843Z,8.50
2018-02-15T18:44:30.654Z,7.87
2018-02-15T18:46:59.209Z,7.40
2018-02-15T18:49:27.006Z,7.13
2018-02-15T18:51:54.786Z,7.80
2018-02-15T18:54:22.579Z,11.17
2018-02-15T18:56:50.358Z,14.70
2018-02-15T18:59:19.002Z,62.07
2018-02-15T19:01:46.794Z,54.07
2018-02-15T19:04:14.574Z,40.77
2018-02-15T19:06:42.354Z,42.20
2018-02-15T19:09:11.127Z,30.20
2018-02-15T19:11:38.906Z,28.57
2018-02-15T19:14:06.713Z,23.00
2018-02-15T19:16:34.504Z,24.90
2018-02-15T19:19:02.781Z,14.00
2018-02-15T19:21:30.606Z,14.20
2018-02-15T19:24:00.011Z,11.20
2018-02-15T19:26:27.817Z,10.97
2018-02-15T19:28:55.665Z,12.07
2018-02-15T19:31:23.454Z,10.60
2018-02-15T19:33:51.262Z,21.30
2018-02-15T19:36:19.037Z,22.23
2018-02-15T19:38:46.877Z,17.07
2018-02-15T19:41:15.462Z,12.70
2018-02-15T19:43:44.015Z,14.37
2018-02-15T19:46:11.857Z,20.67
2018-02-15T19:48:39.650Z,21.73
2018-02-15T19:51:07.597Z,14.30
2018-02-15T19:53:35.397Z,15.37
2018-02-15T19:56:03.198Z,15.47
2018-02-15T19:58:31.241Z,13.53
2018-02-15T20:01:01.835Z,10.90
2018-02-15T20:03:29.630Z,10.37
2018-02-15T20:05:58.606Z,11.10
2018-02-15T20:08:26.770Z,11.37
2018-02-15T20:10:55.068Z,11.50
2018-02-15T20:13:23.709Z,11.50
2018-02-15T20:15:51.557Z,12.10
2018-02-15T20:18:19.365Z,12.10
2018-02-15T20:20:47.185Z,11.90
2018-02-15T20:23:15.008Z,10.70
2018-02-15T20:25:42.854Z,13.13
2018-02-15T20:28:15.718Z,12.50
2018-02-15T20:30:43.559Z,12.07
2018-02-15T20:33:11.366Z,11.50
2018-02-15T20:35:39.954Z,10.10
2018-02-15T20:38:13.314Z,15.37
2018-02-15T20:40:41.169Z,13.50
2018-02-15T20:43:09.198Z,13.13
2018-02-15T20:45:37.048Z,12.43
2018-02-15T20:48:05.952Z,11.30
2018-02-15T20:50:39.562Z,11.00
2018-02-15T20:53:13.684Z,12.37
2018-02-15T20:55:46.796Z,12.30
2018-02-15T20:58:14.881Z,12.40
2018-02-15T21:00:43.744Z,13.03
2018-02-15T21:03:13.624Z,14.40
2018-02-15T21:05:41.586Z,13.00
2018-02-15T21:08:09.531Z,13.20
2018-02-15T21:10:37.376Z,12.60
2018-02-15T21:13:07.346Z,11.70
2018-02-15T21:15:35.194Z,10.37
2018-02-15T21:18:03.870Z,11.20
2018-02-15T21:20:32.367Z,11.80
2018-02-15T21:23:00.231Z,10.07
2018-02-15T21:25:28.224Z,10.30
2018-02-15T21:27:56.031Z,11.30
2018-02-15T21:30:23.862Z,10.40
2018-02-15T21:32:52.465Z,9.90
2018-02-15T21:35:20.381Z,11.30
2018-02-15T21:37:48.770Z,9.90
2018-02-15T21:40:17.141Z,11.03
2018-02-15T21:42:44.975Z,10.27
2018-02-15T21:45:12.753Z,10.30
2018-02-15T21:47:42.078Z,9.80
2018-02-15T21:50:09.870Z,8.40
2018-02-15T21:52:39.348Z,8.20
2018-02-15T21:55:08.158Z,8.90
2018-02-15T21:57:36.788Z,8.30
2018-02-15T22:00:04.822Z,8.97
2018-02-15T22:02:32.625Z,9.70
2018-02-15T22:05:00.406Z,9.73
2018-02-15T22:07:28.196Z,10.47
2018-02-15T22:09:56.023Z,9.17
2018-02-15T22:12:24.245Z,8.90
2018-02-15T22:14:53.022Z,9.23
2018-02-15T22:17:22.138Z,8.10
2018-02-15T22:19:51.508Z,10.10
2018-02-15T22:22:19.298Z,10.63
2018-02-15T22:24:49.563Z,9.63
2018-02-15T22:27:17.339Z,10.60
2018-02-15T22:29:45.190Z,12.40
2018-02-15T22:32:14.341Z,10.30
2018-02-15T22:34:42.889Z,10.00
2018-02-15T22:37:12.537Z,10.20
2018-02-15T22:39:41.094Z,9.10
2018-02-15T22:42:09.826Z,8.80
2018-02-15T22:44:37.627Z,8.47
2018-02-15T22:47:05.438Z,8.53
2018-02-15T22:49:33.981Z,8.37
2018-02-15T22:52:01.826Z,9.30
2018-02-15T22:54:29.642Z,8.10
2018-02-15T22:56:58.187Z,8.10
2018-02-15T22:59:25.961Z,7.80
2018-02-15T23:01:53.794Z,8.37
2018-02-15T23:04:21.579Z,8.40
2018-02-15T23:06:49.366Z,8.60
2018-02-15T23:09:17.438Z,7.80
2018-02-15T23:11:45.854Z,8.93
2018-02-15T23:14:15.506Z,7.43
2018-02-15T23:16:43.857Z,7.43
2018-02-15T23:19:11.629Z,8.53
2018-02-15T23:21:39.490Z,8.47
2018-02-15T23:24:08.162Z,7.77
2018-02-15T23:26:35.953Z,8.00
2018-02-15T23:29:03.753Z,7.80
2018-02-15T23:31:31.644Z,7.97
2018-02-15T23:33:59.506Z,8.93
2018-02-15T23:36:27.519Z,7.93
2018-02-15T23:38:57.118Z,8.83
2018-02-15T23:41:25.227Z,7.90
2018-02-15T23:43:53.022Z,8.17
2018-02-15T23:46:23.171Z,8.33
2018-02-15T23:48:50.946Z,7.73
2018-02-15T23:51:20.125Z,7.50
2018-02-15T23:53:48.046Z,7.50
2018-02-15T23:56:15.984Z,6.97
2018-02-15T23:58:44.442Z,6.77
